Latest Weather Observations for Norah Head

IDN60901

Issued at 9:45 pm EST Wednesday 23 April 2014 (issued every 10 minutes, with the page automatically refreshed every 10 minutes)

About weather observations | Map of Sydney area stations | Latest observations for Sydney area | Other Formats
Station Details ID: 061366 Name: NORAH HEAD AWS Lat: -33.28 Lon: 151.58 Height: 18.8 m
Data from the previous 72 hours. | See also: Recent months at Norah Head
Date/Time
EST
Tmp

°C
App
Tmp
°C
Dew
Point
°C
Rel
Hum
%
Delta-T

°C
Wind Press
QNH
hPa
Press
MSL
hPa
Rain
since
9 am
mm
Dir
 
Spd
km/h
Gust
km/h
Spd
kts
Gust
kts
23/09:30pm 17.5 16.2 12.6 73 2.7 NW 11 15 6 8 1015.9 - 0.0
23/09:00pm 17.9 16.8 13.0 73 2.7 NW 11 17 6 9 1016.0 1015.9 0.0
23/08:30pm 18.3 17.0 13.8 75 2.6 NNW 13 19 7 10 1016.0 - 0.0
23/08:00pm 18.3 17.9 14.0 76 2.5 NNW 9 11 5 6 1016.0 1015.9 0.0
23/07:30pm 18.5 18.2 13.4 72 2.9 NW 7 9 4 5 1016.0 - 0.0
23/07:00pm 19.5 19.5 13.7 69 3.3 NNW 6 7 3 4 1016.1 1016.0 0.0
23/06:30pm 20.4 20.4 14.1 67 3.6 ESE 7 9 4 5 1015.7 - 0.0
23/06:00pm 20.4 20.3 13.8 66 3.8 SE 7 9 4 5 1015.5 1015.4 0.0
23/05:30pm 20.4 19.5 13.8 66 3.8 SE 11 13 6 7 1015.2 - 0.0
23/05:00pm 20.7 19.4 13.6 64 4.1 SE 13 17 7 9 1015.1 1015.0 0.0
23/04:30pm 21.0 19.2 13.2 61 4.5 SSE 15 19 8 10 1014.9 - 0.0
23/04:00pm 21.7 20.0 12.5 56 5.2 SE 13 15 7 8 1014.9 1014.8 0.0
23/03:30pm 22.0 20.5 12.0 53 5.6 SE 11 15 6 8 1015.2 - 0.0
23/03:00pm 23.0 21.8 11.7 49 6.4 SE 9 11 5 6 1015.1 1015.0 0.0
23/02:30pm 23.1 22.3 11.2 47 6.6 ESE 6 7 3 4 1015.0 - 0.0
23/02:00pm 22.7 21.7 10.2 45 6.8 ESE 6 7 3 4 1015.0 1014.9 0.0
23/01:30pm 22.8 21.7 9.9 44 7.0 ESE 6 7 3 4 1015.1 - 0.0
23/01:00pm 23.4 22.7 11.5 47 6.7 SSE 6 6 3 3 1015.5 1015.4 0.0
23/12:30pm 23.6 23.3 11.6 47 6.8 SE 4 6 2 3 1015.8 - 0.0
23/12:00pm 22.8 22.0 11.2 48 6.5 SE 6 7 3 4 1016.4 1016.3 0.0
23/11:30am 22.2 21.6 10.4 47 6.5 ENE 4 6 2 3 1016.6 - 0.0
23/11:00am 22.5 23.1 13.0 55 5.4 S 2 7 1 4 1016.9 1016.8 0.0
23/10:30am 21.3 20.5 11.1 52 5.6 S 6 9 3 5 1017.2 - 0.0
23/10:00am 21.5 21.6 10.0 48 6.2 CALM 0 4 0 2 1017.5 1017.4 0.0
23/09:30am 21.1 20.7 9.7 48 6.1 NW 2 6 1 3 1017.4 - 0.0
23/09:00am 19.3 19.0 8.6 50 5.6 CALM 0 4 0 2 1017.5 1017.4 0.0
23/08:30am 18.1 15.3 8.4 53 5.0 W 13 20 7 11 1017.4 - 0.0
23/08:00am 17.7 14.8 8.0 53 4.9 W 13 19 7 10 1017.2 1017.1 0.0
23/07:30am 16.8 13.4 7.7 55 4.6 W 15 24 8 13 1017.0 - 0.0
23/07:00am 16.1 13.8 7.6 57 4.2 W 9 19 5 10 1016.8 1016.7 0.0
23/06:30am 14.5 13.2 7.5 63 3.5 WNW 4 11 2 6 1016.8 - 0.0
23/06:00am 15.6 13.9 7.6 59 4.0 SSW 6 13 3 7 1016.5 1016.4 0.0
23/05:30am 16.4 13.2 6.8 53 4.7 WSW 13 20 7 11 1016.4 - 0.0
23/05:00am 17.3 13.1 5.9 47 5.5 WSW 17 22 9 12 1016.4 1016.3 0.0
23/04:30am 16.6 14.1 6.7 52 4.9 WSW 9 19 5 10 1016.4 - 0.0
23/04:00am 17.4 13.4 6.6 49 5.3 SW 17 20 9 11 1016.3 1016.2 0.0
23/03:30am 17.6 13.6 6.8 49 5.4 SW 17 20 9 11 1016.2 - 0.0
23/03:00am 17.8 13.8 6.7 48 5.5 SW 17 20 9 11 1016.2 1016.1 0.0
23/02:30am 18.2 14.5 6.4 46 5.8 WSW 15 20 8 11 1016.3 - 0.0
23/02:00am 18.0 14.3 6.5 47 5.7 SW 15 22 8 12 1016.4 1016.3 0.0
23/01:30am 18.2 15.0 7.0 48 5.6 WSW 13 19 7 10 1016.3 - 0.0
23/01:00am 18.1 16.1 6.3 46 5.8 WSW 6 11 3 6 1016.5 1016.4 0.0
23/12:30am 18.8 16.6 6.0 43 6.3 WSW 7 11 4 6 1016.6 - 0.0
23/12:00am 18.6 16.2 6.8 46 5.9 W 9 13 5 7 1016.4 1016.3 0.0
 
Date/Time
EST
Tmp

°C
App
Tmp
°C
Dew
Point
°C
Rel
Hum
%
Delta-T

°C
Wind Press
QNH
hPa
Press
MSL
hPa
Rain
since
9 am
mm
Dir
 
Spd
km/h
Gust
km/h
Spd
kts
Gust
kts
22/11:30pm 18.5 16.2 7.3 48 5.7 W 9 13 5 7 1016.6 - 0.0
22/11:00pm 18.0 16.1 7.4 50 5.3 W 7 13 4 7 1016.8 1016.7 0.0
22/10:30pm 17.8 16.4 9.4 58 4.4 W 7 11 4 6 1016.9 - 0.0
22/10:00pm 19.1 17.5 7.8 48 5.8 W 6 11 3 6 1016.8 1016.7 0.0
22/09:30pm 20.3 17.8 6.6 41 6.9 W 9 13 5 7 1016.8 - 0.0
22/09:00pm 20.0 18.2 8.0 46 6.2 W 7 13 4 7 1016.9 1016.8 0.0
22/08:30pm 19.1 17.6 9.0 52 5.3 W 7 11 4 6 1016.7 - 0.0
22/08:00pm 18.7 17.6 10.8 60 4.3 W 7 9 4 5 1016.5 1016.4 0.0
22/07:30pm 18.8 18.1 12.1 65 3.7 WNW 7 9 4 5 1016.3 - 0.0
22/07:00pm 19.5 19.0 12.0 62 4.2 WNW 6 9 3 5 1016.2 1016.1 0.0
22/06:30pm 19.8 18.4 8.8 49 5.8 W 6 7 3 4 1016.0 - 0.0
22/06:00pm 20.3 19.7 10.4 53 5.4 W 4 6 2 3 1015.8 1015.7 0.0
22/05:30pm 20.6 20.6 9.8 50 5.8 CALM 0 4 0 2 1015.5 - 0.0
22/05:00pm 21.3 20.9 11.1 52 5.6 W 4 6 2 3 1015.3 1015.2 0.0
22/04:30pm 22.4 22.3 12.1 52 5.8 WNW 4 7 2 4 1015.2 - 0.0
22/04:00pm 23.5 24.5 13.1 52 6.0 CALM 0 4 0 2 1015.3 1015.2 0.0
22/03:30pm 24.4 25.0 13.0 49 6.6 WNW 2 7 1 4 1015.2 - 0.0
22/03:00pm 24.5 24.9 11.1 43 7.5 CALM 0 4 0 2 1015.3 1015.2 0.0
22/02:30pm 24.3 24.1 11.9 45 7.0 W 4 9 2 5 1015.3 - 0.0
22/02:00pm 24.4 23.7 11.4 44 7.3 W 6 11 3 6 1015.3 1015.2 0.0
22/01:30pm 24.7 23.8 10.6 41 7.8 WNW 6 13 3 7 1015.4 - 0.0
22/01:00pm 24.2 23.1 10.1 41 7.8 W 6 15 3 8 1015.7 1015.6 0.0
22/12:30pm 24.2 23.8 11.2 44 7.3 WNW 4 9 2 5 1016.2 - 0.0
22/12:00pm 23.2 21.7 13.1 53 5.8 N 13 19 7 10 1016.7 1016.6 0.0
22/11:30am 22.5 21.6 13.8 58 5.1 N 11 15 6 8 1017.3 - 0.0
22/11:00am 21.7 21.2 13.9 61 4.5 N 9 13 5 7 1017.7 1017.6 0.0
22/10:30am 20.8 19.9 13.7 64 4.1 N 11 13 6 7 1018.1 - 0.0
22/10:00am 21.0 20.5 13.9 64 4.1 NNW 9 11 5 6 1018.4 1018.3 0.0
22/09:30am 20.1 19.3 12.8 63 4.1 NW 9 11 5 6 1018.5 - 0.0
22/09:00am 18.8 18.5 12.8 68 3.4 WNW 6 9 3 5 1018.8 1018.7 0.0
22/08:30am 18.0 17.9 12.2 69 3.2 WNW 4 7 2 4 1018.9 - 0.0
22/08:00am 17.3 17.5 12.0 71 2.9 WNW 2 6 1 3 1018.8 1018.7 0.0
22/07:30am 15.9 15.6 11.5 75 2.4 W 4 6 2 3 1018.9 - 0.0
22/07:00am 14.6 14.1 10.8 78 2.0 W 4 6 2 3 1018.7 1018.6 0.0
22/06:30am 14.1 14.2 10.1 77 2.1 CALM 0 2 0 1 1018.7 - 0.0
22/06:00am 14.2 14.3 10.2 77 2.1 CALM 0 0 0 0 1018.6 1018.5 0.0
22/05:30am 14.2 13.4 9.6 74 2.4 W 4 7 2 4 1018.6 - 0.0
22/05:00am 14.5 13.2 9.9 74 2.4 W 7 9 4 5 1018.5 1018.4 0.0
22/04:30am 14.4 13.7 10.0 75 2.3 W 4 7 2 4 1018.5 - 0.0
22/04:00am 14.6 13.6 10.2 75 2.3 W 6 7 3 4 1018.5 1018.4 0.0
22/03:30am 14.7 13.8 10.5 76 2.2 W 6 9 3 5 1018.6 - 0.0
22/03:00am 15.3 13.8 10.5 73 2.5 W 9 13 5 7 1018.7 1018.6 0.0
22/02:30am 15.0 13.5 10.6 75 2.3 W 9 13 5 7 1018.9 - 0.0
22/02:00am 15.2 13.7 10.4 73 2.5 W 9 11 5 6 1019.2 1019.1 0.0
22/01:30am 15.3 13.8 10.5 73 2.5 W 9 11 5 6 1019.6 - 0.0
22/01:00am 15.4 13.9 10.6 73 2.5 W 9 13 5 7 1020.0 1019.9 0.0
22/12:30am 15.7 13.9 10.9 73 2.6 W 11 13 6 7 1020.0 - 0.0
22/12:00am 14.8 13.4 10.8 77 2.1 W 9 13 5 7 1020.0 1019.9 0.0
 
Date/Time
EST
Tmp

°C
App
Tmp
°C
Dew
Point
°C
Rel
Hum
%
Delta-T

°C
Wind Press
QNH
hPa
Press
MSL
hPa
Rain
since
9 am
mm
Dir
 
Spd
km/h
Gust
km/h
Spd
kts
Gust
kts
21/11:30pm 15.3 13.8 10.5 73 2.5 W 9 11 5 6 1020.2 - 0.0
21/11:00pm 16.4 14.9 10.5 68 3.1 W 9 11 5 6 1020.2 1020.1 0.0
21/10:30pm 16.7 15.6 10.8 68 3.2 W 7 9 4 5 1020.2 - 0.0
21/10:00pm 16.8 15.8 10.9 68 3.2 W 7 9 4 5 1020.2 1020.1 0.0
21/09:30pm 16.8 15.8 11.1 69 3.1 WSW 7 11 4 6 1020.4 - 0.0
21/09:00pm 17.0 15.4 11.5 70 3.0 WSW 11 15 6 8 1020.4 1020.3 0.0
21/08:30pm 17.2 15.6 11.7 70 3.0 WSW 11 13 6 7 1020.1 - 0.0
21/08:00pm 17.3 16.2 12.0 71 2.9 SW 9 13 5 7 1019.9 1019.8 0.0
21/07:30pm 18.4 17.5 10.5 60 4.2 SSW 6 9 3 5 1020.0 - 0.0
21/07:00pm 18.9 17.9 10.2 57 4.6 S 6 7 3 4 1019.8 1019.7 0.0
21/06:30pm 18.9 18.3 10.5 58 4.5 SE 4 9 2 5 1019.5 - 0.0
21/06:00pm 18.8 18.0 9.6 55 4.9 ESE 4 7 2 4 1019.1 1019.0 0.0
21/05:30pm 18.9 18.0 10.5 58 4.5 ESE 6 9 3 5 1019.0 - 0.0
21/05:00pm 19.2 18.0 10.2 56 4.8 SE 7 9 4 5 1018.8 1018.7 0.0
21/04:30pm 19.8 18.3 10.5 55 5.0 ESE 9 13 5 7 1018.8 - 0.0
21/04:00pm 20.4 18.3 11.3 56 5.0 ESE 13 17 7 9 1018.7 1018.6 0.0
21/03:30pm 20.6 18.8 10.7 53 5.4 ESE 11 15 6 8 1018.6 - 0.0
21/03:00pm 20.9 19.0 10.4 51 5.7 E 11 15 6 8 1018.5 1018.4 0.0
21/02:30pm 21.8 20.3 10.6 49 6.1 E 9 11 5 6 1018.4 - 0.0
21/02:00pm 21.9 20.8 10.7 49 6.1 ESE 7 9 4 5 1018.7 1018.6 0.0
21/01:30pm 21.9 20.4 10.7 49 6.2 E 9 13 5 7 1019.0 - 0.0
21/01:00pm 21.7 20.8 10.8 50 6.0 ESE 6 9 3 5 1019.2 1019.1 0.0
21/12:30pm 21.4 21.0 9.9 48 6.2 ESE 2 7 1 4 1019.5 - 0.0
21/12:00pm 22.0 21.1 9.2 44 6.8 WNW 4 7 2 4 1019.9 1019.8 0.0
21/11:30am 21.5 20.4 10.0 48 6.2 WSW 6 13 3 7 1020.3 - 0.0
21/11:00am 20.2 19.4 9.7 51 5.6 WSW 4 11 2 6 1020.6 1020.5 0.0
21/10:30am 19.4 17.9 9.0 51 5.5 SW 7 15 4 8 1020.7 - 0.0
21/10:00am 18.9 17.4 9.1 53 5.1 SW 7 15 4 8 1020.8 1020.7 0.0
21/09:30am 17.9 16.0 9.0 56 4.6 WSW 9 17 5 9 1020.8 - 0.0
21/09:00am 16.8 14.4 8.8 59 4.1 SW 11 19 6 10 1021.0 1020.9 0.0
21/08:30am 15.9 13.8 8.4 61 3.8 SW 9 17 5 9 1020.9 - 0.0
21/08:00am 15.3 13.6 8.5 64 3.4 SW 7 15 4 8 1020.7 1020.6 0.0
21/07:30am 14.4 12.3 8.1 66 3.1 S 9 17 5 9 1020.3 - 0.0
21/07:00am 13.7 11.6 8.3 70 2.7 S 9 15 5 8 1020.1 1020.0 0.0
21/06:30am 13.3 10.4 8.2 71 2.5 S 13 17 7 9 1019.8 - 0.0
21/06:00am 13.7 11.1 7.7 67 2.9 SSW 11 19 6 10 1019.3 1019.2 0.0
21/05:30am 13.9 10.4 7.0 63 3.4 SW 15 20 8 11 1019.0 - 0.0
21/05:00am 14.1 10.6 7.2 63 3.4 SW 15 20 8 11 1018.7 1018.6 0.0
21/04:30am 14.5 11.1 7.8 64 3.3 SW 15 24 8 13 1018.5 - 0.0
21/04:00am 14.4 11.0 7.7 64 3.3 SW 15 20 8 11 1018.1 1018.0 0.0
21/03:30am 14.6 12.0 9.2 70 2.8 SW 13 20 7 11 1018.0 - 0.0
21/03:00am 14.4 12.4 10.0 75 2.3 SSW 11 17 6 9 1017.8 1017.7 0.0
21/02:30am 14.9 12.7 10.7 76 2.2 SSE 13 19 7 10 1017.8 - 0.0
21/02:00am 15.2 13.6 11.6 79 1.9 S 11 17 6 9 1017.7 1017.6 0.0
21/01:30am 15.7 14.4 12.5 81 1.8 S 11 17 6 9 1017.9 - 0.0
21/01:00am 15.6 13.7 11.8 78 2.1 SSE 13 17 7 9 1017.8 1017.7 0.0
21/12:30am 16.2 13.3 10.9 71 2.8 SSE 17 22 9 12 1017.4 - 0.0
21/12:00am 16.9 15.9 12.4 75 2.5 S 9 15 5 8 1017.2 1017.1 0.0
 
Date/Time
EST
Tmp

°C
App
Tmp
°C
Dew
Point
°C
Rel
Hum
%
Delta-T

°C
Wind Press
QNH
hPa
Press
MSL
hPa
Rain
since
9 am
mm
Dir
 
Spd
km/h
Gust
km/h
Spd
kts
Gust
kts
20/11:30pm 17.1 16.8 14.4 84 1.5 W 9 11 5 6 1017.2 - 0.0
20/11:00pm 17.7 17.3 15.1 85 1.5 WSW 11 13 6 7 1017.2 1017.1 0.0
20/10:30pm 17.5 17.7 14.6 83 1.7 WNW 7 11 4 6 1017.4 - 0.0
20/10:00pm 18.2 17.8 15.3 83 1.7 NW 11 13 6 7 1017.2 1017.1 0.0

Latest Capital City Observations: Canberra | Sydney | Melbourne | Brisbane | Adelaide | Perth | Hobart | Darwin

Other Formats:

Comma delimited format used in spreadsheet applications
http://www.bom.gov.au/fwo/IDN60901/IDN60901.95770.axf

JavaScript Object Notation format (JSON) in row-major order
http://www.bom.gov.au/fwo/IDN60901/IDN60901.95770.json